createdAt,value
2023-03-20T00:02:05.032Z,28.61
2023-03-20T00:07:15.513Z,28.72
2023-03-20T00:13:02.757Z,28.88
2023-03-20T00:18:28.954Z,29.05
2023-03-20T00:23:24.296Z,29.18
2023-03-20T00:28:31.800Z,29.23
2023-03-20T00:33:39.529Z,29.40
2023-03-20T00:38:51.768Z,29.52
2023-03-20T00:43:59.550Z,29.70
2023-03-20T00:49:16.396Z,29.76
2023-03-20T00:54:19.993Z,29.92
2023-03-20T00:59:29.266Z,30.11
2023-03-20T01:04:41.589Z,30.15
2023-03-20T01:10:05.328Z,30.28
2023-03-20T01:15:17.889Z,30.53
2023-03-20T01:20:25.510Z,30.52
2023-03-20T01:25:33.419Z,30.82
2023-03-20T01:30:43.549Z,30.92
2023-03-20T01:35:55.858Z,31.05
2023-03-20T01:41:07.082Z,31.34
2023-03-20T01:46:14.949Z,31.46
2023-03-20T01:51:29.049Z,31.93
2023-03-20T01:56:36.606Z,32.31
2023-03-20T02:01:43.990Z,32.72
2023-03-20T02:06:51.452Z,33.01
2023-03-20T02:11:58.788Z,33.30
2023-03-20T02:17:06.154Z,33.61
2023-03-20T02:22:13.461Z,33.73
2023-03-20T02:27:20.629Z,33.84
2023-03-20T02:32:27.877Z,33.94
2023-03-20T02:37:35.235Z,34.12
2023-03-20T02:42:42.283Z,34.16
2023-03-20T02:47:49.464Z,34.20
2023-03-20T02:52:56.662Z,34.20
2023-03-20T02:58:03.932Z,34.31
2023-03-20T03:03:11.113Z,34.32
2023-03-20T03:08:18.291Z,34.34
2023-03-20T03:13:25.458Z,34.47
2023-03-20T03:18:32.642Z,34.53
2023-03-20T03:23:39.854Z,34.46
2023-03-20T03:28:47.111Z,34.07
2023-03-20T03:33:54.370Z,33.93
2023-03-20T03:39:01.619Z,34.08
2023-03-20T03:44:08.782Z,34.09
2023-03-20T03:49:15.958Z,34.28
2023-03-20T03:54:23.173Z,34.31
2023-03-20T03:59:30.371Z,34.42
2023-03-20T04:04:37.532Z,34.50
2023-03-20T04:09:44.844Z,34.54
2023-03-20T04:14:52.009Z,34.59
2023-03-20T04:19:59.310Z,34.63
2023-03-20T04:25:06.625Z,34.58
2023-03-20T04:30:13.991Z,34.76
2023-03-20T04:35:21.318Z,34.87
2023-03-20T04:40:28.749Z,34.89
2023-03-20T04:45:36.279Z,34.82
2023-03-20T04:50:43.346Z,34.95
2023-03-20T04:55:50.825Z,34.96
2023-03-20T05:00:58.329Z,34.91
2023-03-20T05:06:05.594Z,34.91
2023-03-20T05:11:12.975Z,35.03
2023-03-20T05:16:20.422Z,35.05
2023-03-20T05:21:27.620Z,35.09
2023-03-20T05:26:35.050Z,35.10
2023-03-20T05:31:42.199Z,35.14
2023-03-20T05:36:49.508Z,35.13
2023-03-20T05:41:57.041Z,35.21
2023-03-20T05:47:04.397Z,35.28
2023-03-20T05:52:11.794Z,35.36
2023-03-20T05:57:19.214Z,35.41
2023-03-20T06:02:26.715Z,35.47
2023-03-20T06:07:34.126Z,35.49
2023-03-20T06:12:41.636Z,35.37
2023-03-20T06:17:52.653Z,35.60
2023-03-20T06:23:00.007Z,35.60
2023-03-20T06:28:07.373Z,35.75
2023-03-20T06:33:14.902Z,35.67
2023-03-20T06:38:22.050Z,35.88
2023-03-20T06:43:29.579Z,36.27
2023-03-20T06:48:36.850Z,36.60
2023-03-20T06:53:44.232Z,36.67
2023-03-20T06:58:51.472Z,36.61
2023-03-20T07:03:58.814Z,36.61
2023-03-20T07:09:06.234Z,36.44
2023-03-20T07:14:13.584Z,36.40
2023-03-20T07:19:21.143Z,36.46
2023-03-20T07:24:28.482Z,36.32
2023-03-20T07:29:35.907Z,36.12
2023-03-20T07:34:43.300Z,36.08
2023-03-20T07:39:50.719Z,36.56
2023-03-20T07:44:58.192Z,36.91
2023-03-20T07:50:08.131Z,36.81
2023-03-20T07:55:12.747Z,36.64
2023-03-20T08:00:20.150Z,36.50
2023-03-20T08:05:27.399Z,36.55
2023-03-20T08:10:34.767Z,36.42
2023-03-20T08:15:42.270Z,36.43
2023-03-20T08:20:49.545Z,36.36
2023-03-20T08:25:57.153Z,36.56
2023-03-20T08:31:04.516Z,36.18
2023-03-20T08:36:11.824Z,36.05
2023-03-20T08:41:19.104Z,36.09
2023-03-20T08:46:26.422Z,36.05
2023-03-20T08:51:33.623Z,36.40
2023-03-20T08:56:40.922Z,36.55
2023-03-20T09:01:50.289Z,36.51
2023-03-20T09:06:55.485Z,36.54
2023-03-20T09:12:02.774Z,36.23
2023-03-20T09:17:10.125Z,36.92
2023-03-20T09:22:21.369Z,37.39
2023-03-20T09:27:28.722Z,37.26
2023-03-20T09:32:36.185Z,36.50
2023-03-20T09:37:43.408Z,36.49
2023-03-20T09:42:50.774Z,36.60
2023-03-20T09:47:58.207Z,37.37
2023-03-20T09:53:05.508Z,37.11
2023-03-20T09:58:12.875Z,35.80
2023-03-20T10:03:20.241Z,36.07
2023-03-20T10:08:27.419Z,36.30
2023-03-20T10:13:34.648Z,35.64
2023-03-20T10:18:41.912Z,35.39
2023-03-20T10:23:49.172Z,34.98
2023-03-20T10:28:56.323Z,35.03
2023-03-20T10:34:03.815Z,36.12
2023-03-20T10:39:11.156Z,37.07
2023-03-20T10:44:18.549Z,36.34
2023-03-20T10:49:26.118Z,36.27
2023-03-20T10:54:33.478Z,36.32
2023-03-20T10:59:40.762Z,35.55
2023-03-20T11:04:48.085Z,35.28
2023-03-20T11:09:55.411Z,36.85
2023-03-20T11:15:07.554Z,35.52
2023-03-20T11:20:14.873Z,35.63
2023-03-20T11:25:22.285Z,36.33
2023-03-20T11:30:29.654Z,35.60
2023-03-20T11:35:37.240Z,36.35
2023-03-20T11:40:44.613Z,36.70
2023-03-20T11:45:56.978Z,36.27
2023-03-20T11:51:04.579Z,35.45
2023-03-20T11:56:18.193Z,37.72
2023-03-20T12:01:25.910Z,37.52
2023-03-20T12:06:33.462Z,37.16
2023-03-20T12:11:41.343Z,37.56
2023-03-20T12:16:49.831Z,37.98
2023-03-20T12:21:57.785Z,36.72
2023-03-20T12:27:26.122Z,36.98
2023-03-20T12:32:29.492Z,36.83
2023-03-20T12:37:55.897Z,36.74
2023-03-20T12:43:07.418Z,36.30
2023-03-20T12:48:22.032Z,36.07
2023-03-20T12:53:30.594Z,36.64
2023-03-20T12:58:44.694Z,36.46
2023-03-20T13:04:27.397Z,36.81
2023-03-20T13:09:55.622Z,36.01
2023-03-20T13:14:57.866Z,35.58
2023-03-20T13:20:14.020Z,35.78
2023-03-20T13:25:16.396Z,35.40
2023-03-20T13:30:28.616Z,35.02
2023-03-20T13:35:43.075Z,36.20
2023-03-20T13:46:40.322Z,36.10
2023-03-20T13:47:33.849Z,36.70
2023-03-20T13:51:45.235Z,35.94
2023-03-20T13:57:05.482Z,36.43
2023-03-20T14:02:48.238Z,36.65
2023-03-20T14:08:01.828Z,36.87
2023-03-20T14:13:09.418Z,36.30
2023-03-20T14:23:38.259Z,36.77
2023-03-20T14:28:53.113Z,35.96
2023-03-20T14:33:58.623Z,35.80
2023-03-20T14:39:07.790Z,36.32
2023-03-20T14:44:15.261Z,35.91
2023-03-20T14:49:26.124Z,36.33
2023-03-20T14:54:34.570Z,35.82
2023-03-20T14:59:45.880Z,36.50
2023-03-20T15:04:54.067Z,36.90
2023-03-20T15:10:05.230Z,36.24
2023-03-20T15:15:12.653Z,35.61
2023-03-20T15:20:20.231Z,35.70
2023-03-20T15:25:27.815Z,35.49
2023-03-20T15:30:38.923Z,36.79
2023-03-20T15:35:55.131Z,36.25
2023-03-20T15:41:02.549Z,35.62
2023-03-20T15:46:19.070Z,35.38
2023-03-20T15:51:17.676Z,35.45
2023-03-20T15:56:25.089Z,35.57
2023-03-20T16:01:54.272Z,35.49
2023-03-20T16:06:45.428Z,35.42
2023-03-20T16:11:53.447Z,35.82
2023-03-20T16:17:01.151Z,35.43
2023-03-20T16:22:23.521Z,35.03
2023-03-20T16:27:30.840Z,34.65
2023-03-20T16:32:39.790Z,34.88
2023-03-20T16:37:47.309Z,34.55
2023-03-20T16:43:09.575Z,34.41
2023-03-20T16:48:18.763Z,34.69
2023-03-20T16:53:26.116Z,34.70
2023-03-20T16:58:33.310Z,34.53
2023-03-20T17:03:45.891Z,34.37
2023-03-20T17:08:53.253Z,34.13
2023-03-20T17:14:00.625Z,34.06
2023-03-20T17:19:08.057Z,34.00
2023-03-20T17:24:19.169Z,34.03
2023-03-20T17:29:26.585Z,34.02
2023-03-20T17:34:34.252Z,34.28
2023-03-20T17:39:41.732Z,34.80
2023-03-20T17:44:49.187Z,35.20
2023-03-20T17:49:56.266Z,34.58
2023-03-20T17:55:03.813Z,34.17
2023-03-20T18:00:11.126Z,33.72
2023-03-20T18:05:18.378Z,33.40
2023-03-20T18:10:25.551Z,33.16
2023-03-20T18:15:33.070Z,32.93
2023-03-20T18:20:40.637Z,32.69
2023-03-20T18:25:48.279Z,32.50
2023-03-20T18:30:55.894Z,32.29
2023-03-20T18:36:03.215Z,32.13
2023-03-20T18:41:10.710Z,31.95
2023-03-20T18:46:18.496Z,31.80
2023-03-20T18:51:27.078Z,31.64
2023-03-20T18:56:34.894Z,31.53
2023-03-20T19:01:42.375Z,31.44
2023-03-20T19:06:49.519Z,31.36
2023-03-20T19:11:57.015Z,31.26
2023-03-20T19:17:04.603Z,31.16
2023-03-20T19:22:22.691Z,31.10
2023-03-20T19:27:19.958Z,31.01
2023-03-20T19:32:27.522Z,30.92
2023-03-20T19:37:35.171Z,30.84
2023-03-20T19:43:01.051Z,30.77
2023-03-20T19:47:50.492Z,30.70
2023-03-20T19:52:58.103Z,30.64
2023-03-20T19:58:05.849Z,30.58
2023-03-20T20:03:13.638Z,30.50
2023-03-20T20:08:29.998Z,30.46
2023-03-20T20:13:28.379Z,30.63
2023-03-20T20:18:36.091Z,31.01
2023-03-20T20:23:43.593Z,30.86
2023-03-20T20:28:51.225Z,30.69
2023-03-20T20:34:36.790Z,30.93
2023-03-20T20:39:06.809Z,30.56
2023-03-20T20:44:17.292Z,30.47
2023-03-20T20:49:21.888Z,30.40
2023-03-20T20:54:29.541Z,30.63
2023-03-20T20:59:36.963Z,30.27
2023-03-20T21:04:44.420Z,30.47
2023-03-20T21:09:51.751Z,30.45
2023-03-20T21:14:59.045Z,30.10
2023-03-20T21:20:06.291Z,30.12
2023-03-20T21:25:15.343Z,30.05
2023-03-20T21:30:21.494Z,30.17
2023-03-20T21:35:28.246Z,30.89
2023-03-20T21:40:35.439Z,30.84
2023-03-20T21:51:26.253Z,31.03
2023-03-20T21:56:40.064Z,31.00
2023-03-20T22:07:09.613Z,30.88
2023-03-20T22:37:39.382Z,31.18
2023-03-20T22:47:09.606Z,30.92
2023-03-20T22:52:28.969Z,30.64
2023-03-20T22:57:29.029Z,30.71
2023-03-20T23:02:31.227Z,30.48
2023-03-20T23:07:38.501Z,30.47
2023-03-20T23:12:45.759Z,30.61
2023-03-20T23:17:53.006Z,30.52
2023-03-20T23:23:00.237Z,30.42
2023-03-20T23:28:07.504Z,30.10
2023-03-20T23:33:14.728Z,30.03
2023-03-20T23:38:21.933Z,29.91
2023-03-20T23:43:29.179Z,29.86
2023-03-20T23:48:36.392Z,29.60
2023-03-20T23:53:43.556Z,29.54
2023-03-20T23:58:59.372Z,29.20
